Time;durP1;ratioP1;P1;durP2;ratioP2;P2;SDS_P1;SDS_P2;PMS_P1;PMS_P2;Temp;Humidity;BMP_temperature;BMP_pressure;BME280_temperature;BME280_humidity;BME280_pressure;Samples;Min_cycle;Max_cycle;Signal;HPM_P1;HPM_P2
2023/08/24 00:00:14;;;;;;;;;;;15.70;99.90;;;;;;5116670;28;19915;-72
2023/08/24 00:02:41;;;;;;;;;;;15.90;99.90;;;;;;5116575;28;19908;-70
2023/08/24 00:05:08;;;;;;;;;;;16.00;99.90;;;;;;5098168;28;19915;-70
2023/08/24 00:07:34;;;;;;;;;;;16.20;99.90;;;;;;5116491;28;19915;-72
2023/08/24 00:10:01;;;;;;;;;;;16.30;99.90;;;;;;5116342;28;19969;-73
2023/08/24 00:12:28;;;;;;;;;;;16.50;99.90;;;;;;5116483;28;20353;-71
2023/08/24 00:14:54;;;;;;;;;;;16.60;99.90;;;;;;5116391;28;19908;-75
2023/08/24 00:17:22;;;;;;;;;;;16.80;99.90;;;;;;5116303;28;19923;-74
2023/08/24 00:19:49;;;;;;;;;;;16.90;99.90;;;;;;5116167;28;19950;-72
2023/08/24 00:22:16;;;;;;;;;;;17.10;99.90;;;;;;5116078;28;19940;-73
2023/08/24 00:24:42;;;;;;;;;;;17.20;99.90;;;;;;5115792;28;20431;-73
2023/08/24 00:27:10;;;;;;;;;;;17.40;99.90;;;;;;5116019;28;20372;-70
2023/08/24 00:29:36;;;;;;;;;;;17.60;99.90;;;;;;5115760;28;19914;-74
2023/08/24 00:32:03;;;;;;;;;;;17.70;99.90;;;;;;5115733;28;19915;-70
2023/08/24 00:34:30;;;;;;;;;;;17.70;99.90;;;;;;5115892;28;19947;-70
2023/08/24 00:36:56;;;;;;;;;;;17.80;99.90;;;;;;5115778;28;19955;-78
2023/08/24 00:39:23;;;;;;;;;;;17.80;99.90;;;;;;5115476;28;19907;-74
2023/08/24 00:41:50;;;;;;;;;;;18.00;99.90;;;;;;5115922;28;20292;-70
2023/08/24 00:44:17;;;;;;;;;;;17.90;99.90;;;;;;5115497;28;19927;-72
2023/08/24 00:46:43;;;;;;;;;;;17.90;99.90;;;;;;5097128;28;19907;-74
2023/08/24 00:49:10;;;;;;;;;;;18.00;99.90;;;;;;5115545;28;19908;-72
2023/08/24 00:51:38;;;;;;;;;;;17.90;99.90;;;;;;5115548;28;19911;-71
2023/08/24 00:54:04;;;;;;;;;;;17.90;99.90;;;;;;5115529;28;19918;-70
2023/08/24 00:56:31;;;;;;;;;;;17.80;99.90;;;;;;5115184;28;19911;-68
2023/08/24 00:58:58;;;;;;;;;;;17.80;99.90;;;;;;5115574;28;19911;-70
2023/08/24 01:01:24;;;;;;;;;;;17.80;99.90;;;;;;5115327;28;20349;-70
2023/08/24 01:03:51;;;;;;;;;;;17.60;99.90;;;;;;5115491;28;19993;-71
2023/08/24 01:06:18;;;;;;;;;;;17.60;99.90;;;;;;5114985;28;19908;-68
2023/08/24 01:08:45;;;;;;;;;;;17.60;99.90;;;;;;5115455;28;19930;-69
2023/08/24 01:11:20;;;;;;;;;;;17.60;99.90;;;;;;5114089;28;20314;-69
2023/08/24 01:13:53;;;;;;;;;;;17.50;99.90;;;;;;5097083;28;19908;-69
2023/08/24 01:16:26;;;;;;;;;;;17.60;99.90;;;;;;5115176;28;19918;-72
2023/08/24 01:18:55;;;;;;;;;;;17.50;99.90;;;;;;5115317;28;19911;-72
2023/08/24 01:21:22;;;;;;;;;;;17.50;99.90;;;;;;5115210;28;19946;-70
2023/08/24 01:24:09;;;;;;;;;;;17.50;99.90;;;;;;5114830;28;19912;-72
2023/08/24 01:26:36;;;;;;;;;;;17.40;99.90;;;;;;5114005;28;19908;-71
2023/08/24 01:29:04;;;;;;;;;;;17.60;99.90;;;;;;5114893;28;19915;-71
2023/08/24 01:31:31;;;;;;;;;;;17.70;99.90;;;;;;5114908;28;19961;-72
2023/08/24 01:33:58;;;;;;;;;;;17.60;99.90;;;;;;5114755;28;19908;-72
2023/08/24 01:36:25;;;;;;;;;;;17.70;99.90;;;;;;5114601;28;20015;-70
2023/08/24 01:39:00;;;;;;;;;;;17.80;99.90;;;;;;5096243;28;19919;-73
2023/08/24 01:41:28;;;;;;;;;;;17.90;99.90;;;;;;5114878;28;20007;-70
2023/08/24 01:43:55;;;;;;;;;;;18.20;99.90;;;;;;5114437;28;20048;-70
2023/08/24 01:46:25;;;;;;;;;;;18.50;99.90;;;;;;5114356;28;19921;-71
2023/08/24 01:48:52;;;;;;;;;;;18.50;99.90;;;;;;5114260;28;20002;-69
2023/08/24 01:51:19;;;;;;;;;;;18.50;99.90;;;;;;5114540;28;19912;-70
2023/08/24 01:53:46;;;;;;;;;;;18.50;99.90;;;;;;5114438;28;20276;-70
2023/08/24 01:56:14;;;;;;;;;;;18.40;99.90;;;;;;5114269;28;19912;-69
2023/08/24 01:58:40;;;;;;;;;;;18.40;99.90;;;;;;5114330;28;19914;-71
2023/08/24 02:01:08;;;;;;;;;;;18.50;99.90;;;;;;5114545;28;19912;-71
2023/08/24 02:03:34;;;;;;;;;;;18.60;99.90;;;;;;5114052;28;20283;-69
2023/08/24 02:06:01;;;;;;;;;;;18.60;99.90;;;;;;5113946;28;19916;-70
2023/08/24 02:08:28;;;;;;;;;;;18.80;99.90;;;;;;5095899;28;19915;-70
2023/08/24 02:10:55;;;;;;;;;;;18.80;99.90;;;;;;5113520;28;19908;-70
2023/08/24 02:13:21;;;;;;;;;;;19.00;99.90;;;;;;5113812;28;19915;-68
2023/08/24 02:15:48;;;;;;;;;;;19.20;99.90;;;;;;5113837;28;19907;-71
2023/08/24 02:18:15;;;;;;;;;;;19.20;99.90;;;;;;5114006;28;20018;-70
2023/08/24 02:20:41;;;;;;;;;;;19.10;99.80;;;;;;5113607;28;19908;-69
2023/08/24 02:23:08;;;;;;;;;;;18.90;99.90;;;;;;5113615;28;20336;-69
2023/08/24 02:25:35;;;;;;;;;;;18.80;99.90;;;;;;5113538;28;19998;-71
2023/08/24 02:28:01;;;;;;;;;;;18.80;99.90;;;;;;5113780;28;20015;-69
2023/08/24 02:30:28;;;;;;;;;;;18.70;99.90;;;;;;5113748;28;19994;-70
2023/08/24 02:32:54;;;;;;;;;;;18.60;99.90;;;;;;5113780;28;19915;-69
2023/08/24 02:35:21;;;;;;;;;;;18.50;99.90;;;;;;5113254;28;19960;-68
2023/08/24 02:37:49;;;;;;;;;;;18.50;99.90;;;;;;5113050;28;20288;-70
2023/08/24 02:40:15;;;;;;;;;;;18.30;99.90;;;;;;5113417;28;19908;-70
2023/08/24 02:42:42;;;;;;;;;;;18.30;99.90;;;;;;5113331;28;19908;-71
2023/08/24 02:45:09;;;;;;;;;;;18.20;99.90;;;;;;5113249;28;20014;-69
2023/08/24 02:47:36;;;;;;;;;;;18.00;99.90;;;;;;5113349;28;20060;-68
2023/08/24 02:50:03;;;;;;;;;;;18.00;99.90;;;;;;5113032;28;19914;-69
2023/08/24 02:52:30;;;;;;;;;;;17.90;99.90;;;;;;5113303;28;19939;-69
2023/08/24 02:54:57;;;;;;;;;;;17.90;99.90;;;;;;5094893;28;20396;-71
2023/08/24 02:57:23;;;;;;;;;;;17.90;99.90;;;;;;5112830;28;19915;-68
2023/08/24 02:59:50;;;;;;;;;;;17.80;99.90;;;;;;5113034;28;19919;-70
2023/08/24 03:02:16;;;;;;;;;;;17.90;99.90;;;;;;5113065;28;19915;-69
2023/08/24 03:04:44;;;;;;;;;;;17.90;99.90;;;;;;5111316;28;19915;-70
2023/08/24 03:07:10;;;;;;;;;;;18.00;99.90;;;;;;5112210;28;19903;-69
2023/08/24 03:09:37;;;;;;;;;;;18.00;99.90;;;;;;5113223;28;20048;-69
2023/08/24 03:12:04;;;;;;;;;;;18.10;99.90;;;;;;5112834;28;19993;-69
2023/08/24 03:14:30;;;;;;;;;;;18.20;99.90;;;;;;5113006;28;19912;-70
2023/08/24 03:16:57;;;;;;;;;;;18.30;99.90;;;;;;5113125;28;20011;-68
2023/08/24 03:19:24;;;;;;;;;;;18.50;99.90;;;;;;5113219;28;19998;-69
2023/08/24 03:21:50;;;;;;;;;;;18.60;99.90;;;;;;5112711;28;19908;-72
2023/08/24 03:24:17;;;;;;;;;;;19.00;99.90;;;;;;5102723;28;19920;-70
2023/08/24 03:26:44;;;;;;;;;;;19.80;99.60;;;;;;5111622;28;19908;-71
2023/08/24 03:29:10;;;;;;;;;;;21.10;99.00;;;;;;5112782;28;19908;-68
2023/08/24 03:31:37;;;;;;;;;;;21.80;95.80;;;;;;5131563;28;20264;-72
2023/08/24 03:34:04;;;;;;;;;;;22.30;95.70;;;;;;5119928;27;19908;-68
2023/08/24 03:36:31;;;;;;;;;;;22.80;93.70;;;;;;5095192;28;19931;-69
2023/08/24 03:38:57;;;;;;;;;;;22.50;92.50;;;;;;5096689;28;19965;-70
2023/08/24 03:41:24;;;;;;;;;;;22.10;93.20;;;;;;5096235;28;19947;-70
2023/08/24 03:43:50;;;;;;;;;;;21.70;92.90;;;;;;5123449;27;19916;-68
2023/08/24 03:46:17;;;;;;;;;;;21.30;93.50;;;;;;5095180;28;19978;-69
2023/08/24 03:48:44;;;;;;;;;;;20.90;94.00;;;;;;5094352;28;20387;-72
2023/08/24 03:51:11;;;;;;;;;;;20.50;95.10;;;;;;5094327;28;19909;-70
2023/08/24 03:53:38;;;;;;;;;;;20.30;95.30;;;;;;5094365;28;20356;-72
2023/08/24 03:56:05;;;;;;;;;;;20.00;95.00;;;;;;5094094;28;19908;-69
2023/08/24 03:58:31;;;;;;;;;;;19.70;95.30;;;;;;5094113;28;20010;-69
2023/08/24 04:00:58;;;;;;;;;;;19.60;95.90;;;;;;5094973;28;19930;-70
2023/08/24 04:03:24;;;;;;;;;;;19.70;96.30;;;;;;5096249;28;19986;-70
2023/08/24 04:05:51;;;;;;;;;;;20.20;94.90;;;;;;5096099;28;19909;-69
2023/08/24 04:08:18;;;;;;;;;;;20.40;94.50;;;;;;5096011;28;19915;-70
2023/08/24 04:10:44;;;;;;;;;;;20.50;93.80;;;;;;5096067;28;19908;-70
2023/08/24 04:13:11;;;;;;;;;;;20.70;94.30;;;;;;5096232;28;19915;-68
2023/08/24 04:15:37;;;;;;;;;;;20.90;94.10;;;;;;5096613;28;20375;-69
2023/08/24 04:18:04;;;;;;;;;;;21.50;94.20;;;;;;5095837;28;19931;-71
2023/08/24 04:20:31;;;;;;;;;;;23.00;91.40;;;;;;5095931;28;19954;-71
2023/08/24 04:22:57;;;;;;;;;;;23.10;89.10;;;;;;5095864;28;19908;-71
2023/08/24 04:25:24;;;;;;;;;;;22.80;90.50;;;;;;5098636;28;20367;-70
2023/08/24 04:27:51;;;;;;;;;;;23.40;90.40;;;;;;5115462;28;20052;-69
2023/08/24 04:30:17;;;;;;;;;;;24.30;86.90;;;;;;5115706;28;19939;-71
2023/08/24 04:32:44;;;;;;;;;;;24.90;85.20;;;;;;5115480;28;19912;-69
2023/08/24 04:35:11;;;;;;;;;;;26.00;82.30;;;;;;5115091;28;19912;-69
2023/08/24 04:37:38;;;;;;;;;;;26.10;80.00;;;;;;5108285;28;20445;-71
2023/08/24 04:40:07;;;;;;;;;;;25.90;78.70;;;;;;5103246;28;20317;-71
2023/08/24 04:42:34;;;;;;;;;;;24.60;81.10;;;;;;5096768;28;19915;-70
2023/08/24 04:45:01;;;;;;;;;;;23.90;82.70;;;;;;5113579;28;19919;-71
2023/08/24 04:47:27;;;;;;;;;;;23.10;84.40;;;;;;5095355;28;20261;-70
2023/08/24 04:49:54;;;;;;;;;;;22.60;86.30;;;;;;5101212;28;19969;-71
2023/08/24 04:52:21;;;;;;;;;;;22.30;86.60;;;;;;5115151;28;19908;-69
2023/08/24 04:54:47;;;;;;;;;;;21.90;85.20;;;;;;5115053;28;19908;-69
2023/08/24 04:57:14;;;;;;;;;;;21.40;87.40;;;;;;5115269;28;19919;-69
2023/08/24 04:59:40;;;;;;;;;;;21.40;90.10;;;;;;5115207;28;19961;-69
2023/08/24 05:02:07;;;;;;;;;;;21.70;88.20;;;;;;5113093;28;19920;-69
2023/08/24 05:04:34;;;;;;;;;;;22.10;87.60;;;;;;5104218;28;19912;-70
2023/08/24 05:07:01;;;;;;;;;;;22.00;86.30;;;;;;5094709;28;20258;-71
2023/08/24 05:09:27;;;;;;;;;;;21.90;87.70;;;;;;5094672;28;19920;-68
2023/08/24 05:11:54;;;;;;;;;;;21.80;87.90;;;;;;5094793;28;19926;-70
2023/08/24 05:14:20;;;;;;;;;;;21.70;87.60;;;;;;5093257;28;19915;-68
2023/08/24 05:16:47;;;;;;;;;;;21.50;89.40;;;;;;5101977;28;20012;-68
2023/08/24 05:19:14;;;;;;;;;;;21.40;90.40;;;;;;5108475;28;20397;-68
2023/08/24 05:21:40;;;;;;;;;;;21.30;89.60;;;;;;5107588;28;20006;-69
2023/08/24 05:24:07;;;;;;;;;;;21.00;90.50;;;;;;5110017;28;21424;-69
2023/08/24 05:26:33;;;;;;;;;;;20.70;91.00;;;;;;5109585;28;19920;-69
2023/08/24 05:29:01;;;;;;;;;;;20.30;91.50;;;;;;5108558;28;19953;-69
2023/08/24 05:31:27;;;;;;;;;;;20.30;91.50;;;;;;5112744;28;19951;-68
2023/08/24 05:33:54;;;;;;;;;;;20.40;91.10;;;;;;5111833;28;20002;-68
2023/08/24 05:36:21;;;;;;;;;;;20.50;91.90;;;;;;5112422;28;19961;-68
2023/08/24 05:38:47;;;;;;;;;;;21.60;90.10;;;;;;5093899;28;20564;-69
2023/08/24 05:41:14;;;;;;;;;;;22.40;90.10;;;;;;5092674;28;19912;-67
2023/08/24 05:43:41;;;;;;;;;;;23.70;85.40;;;;;;5106505;28;20372;-68
2023/08/24 05:46:07;;;;;;;;;;;24.20;82.50;;;;;;5113242;28;19915;-68
2023/08/24 05:48:34;;;;;;;;;;;24.20;82.40;;;;;;5112623;28;19908;-70
2023/08/24 05:51:01;;;;;;;;;;;24.00;81.60;;;;;;5113244;28;19908;-69
2023/08/24 05:53:27;;;;;;;;;;;24.20;81.70;;;;;;5111888;28;19912;-69
2023/08/24 05:55:57;;;;;;;;;;;24.40;82.80;;;;;;5112694;28;19907;-68
2023/08/24 05:58:24;;;;;;;;;;;25.10;83.70;;;;;;5112438;28;19916;-69
2023/08/24 06:00:55;;;;;;;;;;;25.30;79.50;;;;;;5113570;28;19931;-69
2023/08/24 06:03:22;;;;;;;;;;;24.40;80.20;;;;;;5113576;28;19907;-67
2023/08/24 06:05:50;;;;;;;;;;;25.10;81.40;;;;;;5112120;28;19930;-68
2023/08/24 06:08:20;;;;;;;;;;;25.90;78.50;;;;;;5093899;28;19916;-69
2023/08/24 06:10:47;;;;;;;;;;;26.90;77.50;;;;;;5075135;28;19919;-68
2023/08/24 06:13:14;;;;;;;;;;;25.90;76.30;;;;;;5110737;28;19911;-69
2023/08/24 06:15:40;;;;;;;;;;;25.70;77.60;;;;;;5112158;28;19915;-69
2023/08/24 06:18:07;;;;;;;;;;;26.20;76.50;;;;;;5109907;28;19927;-69
2023/08/24 06:20:34;;;;;;;;;;;26.40;77.90;;;;;;5110906;28;19919;-69
2023/08/24 06:23:00;;;;;;;;;;;26.40;75.70;;;;;;5109437;28;19986;-70
2023/08/24 06:25:27;;;;;;;;;;;26.70;75.80;;;;;;5111768;28;19951;-67
2023/08/24 06:27:53;;;;;;;;;;;26.90;74.60;;;;;;5112220;28;19994;-70
2023/08/24 06:30:20;;;;;;;;;;;26.60;75.10;;;;;;5102782;28;19918;-70
2023/08/24 06:32:47;;;;;;;;;;;25.80;75.40;;;;;;5096600;28;19991;-70
2023/08/24 06:35:14;;;;;;;;;;;25.60;76.10;;;;;;5108114;27;19971;-69
2023/08/24 06:37:41;;;;;;;;;;;25.70;76.00;;;;;;5094205;28;19920;-67
2023/08/24 06:40:08;;;;;;;;;;;25.40;75.60;;;;;;5109063;28;19908;-73
2023/08/24 06:42:35;;;;;;;;;;;25.00;76.10;;;;;;5094980;28;19909;-68
2023/08/24 06:45:01;;;;;;;;;;;24.10;76.10;;;;;;5106180;28;20007;-68
2023/08/24 06:47:28;;;;;;;;;;;23.60;78.00;;;;;;5103991;28;19912;-67
2023/08/24 06:49:55;;;;;;;;;;;23.50;78.90;;;;;;5090932;28;19908;-69
2023/08/24 06:52:21;;;;;;;;;;;23.10;79.00;;;;;;5102702;27;19916;-69
2023/08/24 06:54:53;;;;;;;;;;;22.50;81.00;;;;;;5091609;28;19908;-69
2023/08/24 06:57:20;;;;;;;;;;;21.80;82.40;;;;;;5105201;28;19920;-67
2023/08/24 06:59:46;;;;;;;;;;;20.90;85.80;;;;;;5107202;28;20004;-68
2023/08/24 07:02:13;;;;;;;;;;;20.50;88.30;;;;;;5099190;28;20375;-68
2023/08/24 07:04:40;;;;;;;;;;;20.00;89.00;;;;;;5098175;28;19916;-69
2023/08/24 07:07:07;;;;;;;;;;;19.60;89.80;;;;;;5095256;28;19912;-69
2023/08/24 07:09:35;;;;;;;;;;;19.20;90.10;;;;;;5095357;28;19963;-68
2023/08/24 07:12:03;;;;;;;;;;;18.80;90.40;;;;;;5098916;28;20332;-70
2023/08/24 07:14:29;;;;;;;;;;;18.60;91.30;;;;;;5095022;28;19908;-70
2023/08/24 07:16:56;;;;;;;;;;;18.30;91.40;;;;;;5106365;28;19962;-69
2023/08/24 07:19:22;;;;;;;;;;;18.10;91.90;;;;;;5091066;28;19956;-68
2023/08/24 07:21:49;;;;;;;;;;;17.90;92.40;;;;;;5096156;28;19999;-68
2023/08/24 07:24:17;;;;;;;;;;;17.70;92.80;;;;;;5091437;28;19920;-68
2023/08/24 07:26:43;;;;;;;;;;;17.60;93.40;;;;;;5085716;28;20030;-69
2023/08/24 07:29:10;;;;;;;;;;;17.40;94.20;;;;;;5108476;28;19920;-69
2023/08/24 07:31:37;;;;;;;;;;;17.30;94.50;;;;;;5097185;28;19908;-67
2023/08/24 07:34:03;;;;;;;;;;;17.20;94.50;;;;;;5095693;28;19916;-68
2023/08/24 07:36:30;;;;;;;;;;;17.10;94.80;;;;;;5108338;28;20265;-68
2023/08/24 07:38:57;;;;;;;;;;;17.00;95.10;;;;;;5093870;28;19912;-67
2023/08/24 07:41:24;;;;;;;;;;;16.90;95.70;;;;;;5107840;28;19912;-68
2023/08/24 07:43:51;;;;;;;;;;;16.80;96.10;;;;;;5104850;28;19935;-69
2023/08/24 07:46:17;;;;;;;;;;;16.70;96.30;;;;;;5106036;28;19922;-70
2023/08/24 07:48:44;;;;;;;;;;;16.60;96.90;;;;;;5099741;28;19912;-68
2023/08/24 07:51:11;;;;;;;;;;;16.60;97.40;;;;;;5096094;28;20364;-68
2023/08/24 07:53:38;;;;;;;;;;;16.50;97.20;;;;;;5093736;28;20387;-68
2023/08/24 07:56:05;;;;;;;;;;;16.30;97.30;;;;;;5095926;28;19908;-67
2023/08/24 07:58:32;;;;;;;;;;;16.30;97.60;;;;;;5093698;28;19916;-66
2023/08/24 08:01:00;;;;;;;;;;;16.20;98.20;;;;;;5107382;28;19915;-68
2023/08/24 08:03:27;;;;;;;;;;;16.10;98.50;;;;;;5103966;28;19972;-68
2023/08/24 08:05:54;;;;;;;;;;;16.00;98.90;;;;;;5106689;28;19933;-67
2023/08/24 08:08:21;;;;;;;;;;;15.90;99.30;;;;;;5094835;28;19912;-69
2023/08/24 08:10:47;;;;;;;;;;;15.90;99.70;;;;;;5104548;28;19908;-69
2023/08/24 08:13:14;;;;;;;;;;;15.70;99.90;;;;;;5107093;28;19964;-69
2023/08/24 08:15:41;;;;;;;;;;;15.70;99.90;;;;;;5102624;28;20311;-69
2023/08/24 08:18:07;;;;;;;;;;;15.70;99.90;;;;;;5104608;28;19919;-68
2023/08/24 08:20:34;;;;;;;;;;;15.70;99.90;;;;;;5108829;27;19961;-68
2023/08/24 08:23:01;;;;;;;;;;;15.50;99.90;;;;;;5106696;28;19916;-67
2023/08/24 08:25:28;;;;;;;;;;;15.50;99.90;;;;;;5097327;28;20572;-67
2023/08/24 08:27:54;;;;;;;;;;;15.40;99.90;;;;;;5099432;28;19912;-68
2023/08/24 08:30:21;;;;;;;;;;;15.30;99.90;;;;;;5094061;28;19924;-67
2023/08/24 08:32:50;;;;;;;;;;;15.30;99.90;;;;;;5101778;28;19950;-70
2023/08/24 08:35:17;;;;;;;;;;;15.20;99.90;;;;;;5104789;28;20269;-68
2023/08/24 08:37:44;;;;;;;;;;;15.10;99.90;;;;;;5100406;27;20713;-68
2023/08/24 08:40:11;;;;;;;;;;;15.00;99.90;;;;;;5101895;28;19911;-67
2023/08/24 08:42:38;;;;;;;;;;;15.00;99.90;;;;;;5107788;27;19908;-67
2023/08/24 08:45:08;;;;;;;;;;;15.00;99.90;;;;;;5094638;28;20007;-68
2023/08/24 08:47:35;;;;;;;;;;;14.90;99.90;;;;;;5105162;28;19919;-66
2023/08/24 08:50:05;;;;;;;;;;;14.90;99.90;;;;;;5094961;28;19915;-70
2023/08/24 08:52:33;;;;;;;;;;;14.90;99.90;;;;;;5109523;28;19920;-70
2023/08/24 08:55:00;;;;;;;;;;;14.90;99.90;;;;;;5110194;28;19981;-70
2023/08/24 08:57:27;;;;;;;;;;;14.90;99.90;;;;;;5112938;27;19916;-73
2023/08/24 08:59:54;;;;;;;;;;;14.90;99.90;;;;;;5112811;28;19919;-73
2023/08/24 09:02:21;;;;;;;;;;;14.90;99.90;;;;;;5111560;28;19923;-70
2023/08/24 09:04:49;;;;;;;;;;;14.80;99.90;;;;;;5112237;28;19992;-74
2023/08/24 09:07:16;;;;;;;;;;;14.90;99.90;;;;;;5113507;28;20048;-68
2023/08/24 09:09:43;;;;;;;;;;;14.80;99.90;;;;;;5107959;28;19908;-71
2023/08/24 09:12:10;;;;;;;;;;;14.80;99.90;;;;;;5094643;28;19939;-69
2023/08/24 09:14:36;;;;;;;;;;;14.70;99.90;;;;;;5094560;28;19999;-68
2023/08/24 09:17:03;;;;;;;;;;;14.70;99.90;;;;;;5094582;28;20319;-68
2023/08/24 09:19:30;;;;;;;;;;;14.70;99.90;;;;;;5105390;28;20379;-67
2023/08/24 09:21:57;;;;;;;;;;;14.70;99.90;;;;;;5114962;28;19934;-70
2023/08/24 09:24:34;;;;;;;;;;;14.60;99.90;;;;;;5115090;28;20348;-68
2023/08/24 09:27:14;;;;;;;;;;;14.60;99.90;;;;;;5114840;28;19960;-70
2023/08/24 09:29:40;;;;;;;;;;;14.50;99.90;;;;;;5100413;28;19928;-69
2023/08/24 09:32:10;;;;;;;;;;;14.50;99.90;;;;;;5107079;28;19911;-68
2023/08/24 09:34:37;;;;;;;;;;;14.50;99.90;;;;;;5111941;28;19907;-69
2023/08/24 09:37:04;;;;;;;;;;;14.50;99.90;;;;;;5110482;28;19928;-69
2023/08/24 09:39:31;;;;;;;;;;;14.50;99.90;;;;;;5112951;28;19951;-71
2023/08/24 09:42:02;;;;;;;;;;;14.50;99.90;;;;;;5112383;28;20056;-69
2023/08/24 09:44:29;;;;;;;;;;;14.50;99.90;;;;;;5104748;28;19967;-68
2023/08/24 09:46:56;;;;;;;;;;;14.40;99.90;;;;;;5111653;28;19915;-67
2023/08/24 09:49:22;;;;;;;;;;;14.40;99.90;;;;;;5112758;28;19916;-71
2023/08/24 09:51:49;;;;;;;;;;;14.40;99.90;;;;;;5107833;28;19954;-70
2023/08/24 09:54:18;;;;;;;;;;;14.40;99.90;;;;;;5110582;28;19950;-70
2023/08/24 09:56:46;;;;;;;;;;;14.40;99.90;;;;;;5090958;28;19916;-72
2023/08/24 09:59:14;;;;;;;;;;;14.30;99.90;;;;;;5108872;28;19911;-67
2023/08/24 10:01:44;;;;;;;;;;;14.30;99.90;;;;;;5097944;28;20013;-70
2023/08/24 10:04:12;;;;;;;;;;;14.30;99.90;;;;;;5104397;28;19912;-66
2023/08/24 10:06:40;;;;;;;;;;;14.30;99.90;;;;;;5109673;28;20288;-67
2023/08/24 10:09:15;;;;;;;;;;;14.20;99.90;;;;;;5111510;27;19924;-67
2023/08/24 10:11:49;;;;;;;;;;;14.20;99.90;;;;;;5110630;28;19920;-66
2023/08/24 10:14:32;;;;;;;;;;;14.20;99.90;;;;;;5108336;27;20003;-71
2023/08/24 10:16:59;;;;;;;;;;;14.10;99.90;;;;;;5108931;28;20512;-66
2023/08/24 10:19:27;;;;;;;;;;;14.10;99.90;;;;;;5108719;28;19920;-67
2023/08/24 10:21:57;;;;;;;;;;;14.10;99.90;;;;;;5106791;28;20361;-69
2023/08/24 10:24:23;;;;;;;;;;;14.00;99.90;;;;;;5105515;27;20394;-66
2023/08/24 10:26:50;;;;;;;;;;;13.90;99.90;;;;;;5092279;28;19916;-68
2023/08/24 10:29:17;;;;;;;;;;;14.00;99.90;;;;;;5095283;28;19916;-67
2023/08/24 10:31:44;;;;;;;;;;;13.90;99.90;;;;;;5091328;28;19917;-65
2023/08/24 10:34:11;;;;;;;;;;;13.90;99.90;;;;;;5095863;28;20290;-67
2023/08/24 10:36:41;;;;;;;;;;;14.00;99.90;;;;;;5098814;28;19912;-68
2023/08/24 10:39:08;;;;;;;;;;;13.90;99.90;;;;;;5094945;28;19965;-67
2023/08/24 10:41:48;;;;;;;;;;;13.90;99.90;;;;;;5091817;28;19916;-67
2023/08/24 10:44:40;;;;;;;;;;;14.00;99.90;;;;;;5100517;28;19924;-68
2023/08/24 10:47:08;;;;;;;;;;;13.90;99.90;;;;;;5096169;28;19919;-68
2023/08/24 10:49:34;;;;;;;;;;;13.90;99.90;;;;;;5094755;28;19919;-68
2023/08/24 10:52:21;;;;;;;;;;;13.90;99.90;;;;;;5091669;28;20003;-69
2023/08/24 10:54:51;;;;;;;;;;;13.70;99.90;;;;;;5102883;28;19912;-73
2023/08/24 10:57:19;;;;;;;;;;;13.70;99.90;;;;;;5090987;28;19927;-68
2023/08/24 10:59:57;;;;;;;;;;;13.70;99.90;;;;;;5094452;28;19947;-67
2023/08/24 11:02:24;;;;;;;;;;;13.60;99.90;;;;;;5099001;28;19943;-69
2023/08/24 11:05:30;;;;;;;;;;;13.60;99.90;;;;;;5097820;28;19904;-74
2023/08/24 11:08:01;;;;;;;;;;;13.50;99.90;;;;;;5021676;28;19920;-68
2023/08/24 11:10:42;;;;;;;;;;;13.50;99.90;;;;;;5017298;28;19913;-68
2023/08/24 11:13:09;;;;;;;;;;;13.40;99.90;;;;;;5066663;28;19957;-67
2023/08/24 11:15:42;;;;;;;;;;;13.40;99.90;;;;;;5109770;28;19912;-69
2023/08/24 11:18:12;;;;;;;;;;;13.30;99.90;;;;;;5109664;28;19971;-67
2023/08/24 11:20:49;;;;;;;;;;;13.30;99.90;;;;;;5112096;28;19908;-69
2023/08/24 11:23:16;;;;;;;;;;;13.20;99.90;;;;;;5109700;28;19912;-70
2023/08/24 11:25:43;;;;;;;;;;;13.20;99.90;;;;;;5108383;28;19908;-69
2023/08/24 11:28:10;;;;;;;;;;;13.20;99.90;;;;;;5112736;28;20475;-68
2023/08/24 11:30:37;;;;;;;;;;;13.20;99.90;;;;;;5112980;28;19994;-68
2023/08/24 11:33:03;;;;;;;;;;;13.10;99.90;;;;;;5113012;28;19907;-72
2023/08/24 11:35:35;;;;;;;;;;;13.00;99.90;;;;;;5105397;28;19916;-68
2023/08/24 11:38:02;;;;;;;;;;;13.00;99.90;;;;;;5092429;28;19962;-68
2023/08/24 11:40:28;;;;;;;;;;;13.00;99.90;;;;;;5092026;28;19912;-69
2023/08/24 11:42:58;;;;;;;;;;;12.90;99.90;;;;;;5092059;28;20322;-68
2023/08/24 11:45:29;;;;;;;;;;;12.90;99.90;;;;;;5092510;28;19920;-71
2023/08/24 11:47:56;;;;;;;;;;;12.80;99.90;;;;;;5091989;28;20005;-69
2023/08/24 11:50:23;;;;;;;;;;;12.90;99.90;;;;;;5092441;28;19909;-70
2023/08/24 11:52:50;;;;;;;;;;;12.80;99.90;;;;;;5092471;28;19919;-69
2023/08/24 11:55:17;;;;;;;;;;;12.70;99.90;;;;;;5095261;28;19912;-69
2023/08/24 11:57:43;;;;;;;;;;;12.70;99.90;;;;;;5099956;28;20296;-67
2023/08/24 12:00:13;;;;;;;;;;;12.70;99.90;;;;;;5095485;28;19958;-69
2023/08/24 12:02:43;;;;;;;;;;;12.70;99.90;;;;;;5077662;28;19952;-69
2023/08/24 12:05:20;;;;;;;;;;;12.60;99.90;;;;;;5096052;28;19962;-74
2023/08/24 12:07:47;;;;;;;;;;;12.60;99.90;;;;;;5096224;28;19919;-66
2023/08/24 12:10:13;;;;;;;;;;;12.60;99.90;;;;;;5096140;28;19990;-72
2023/08/24 12:12:40;;;;;;;;;;;12.60;99.90;;;;;;5096058;28;19908;-69
2023/08/24 12:15:07;;;;;;;;;;;12.60;99.90;;;;;;5095892;28;19908;-69
2023/08/24 12:17:43;;;;;;;;;;;12.50;99.90;;;;;;5095700;28;20304;-70
2023/08/24 12:20:17;;;;;;;;;;;12.50;99.90;;;;;;5096218;28;19923;-68
2023/08/24 12:22:43;;;;;;;;;;;12.50;99.90;;;;;;5095813;28;19908;-69
2023/08/24 12:25:10;;;;;;;;;;;12.40;99.90;;;;;;5113606;28;20267;-69
2023/08/24 12:27:37;;;;;;;;;;;12.40;99.90;;;;;;5115952;28;20268;-70
2023/08/24 12:30:04;;;;;;;;;;;12.40;99.90;;;;;;5115820;28;20002;-71
2023/08/24 12:32:44;;;;;;;;;;;12.30;99.90;;;;;;5116174;28;20278;-68
2023/08/24 12:35:11;;;;;;;;;;;12.30;99.90;;;;;;5115612;28;19911;-68
2023/08/24 12:37:37;;;;;;;;;;;12.30;99.90;;;;;;5115083;28;20273;-68
2023/08/24 12:40:07;;;;;;;;;;;12.20;99.90;;;;;;5097433;28;19908;-68
2023/08/24 12:42:34;;;;;;;;;;;12.20;99.90;;;;;;5115734;28;20010;-71
2023/08/24 12:45:01;;;;;;;;;;;12.20;99.90;;;;;;5115227;28;19927;-67
2023/08/24 12:47:27;;;;;;;;;;;12.10;99.90;;;;;;5115489;28;19919;-67
2023/08/24 12:49:55;;;;;;;;;;;12.20;99.90;;;;;;5115719;28;20400;-68
2023/08/24 12:52:23;;;;;;;;;;;12.20;99.90;;;;;;5115719;28;19915;-72
2023/08/24 12:54:50;;;;;;;;;;;12.10;99.90;;;;;;5115811;28;19916;-68
2023/08/24 12:57:16;;;;;;;;;;;12.10;99.90;;;;;;5114036;28;20002;-71
2023/08/24 12:59:43;;;;;;;;;;;12.00;99.90;;;;;;5115659;28;19912;-70
2023/08/24 13:02:11;;;;;;;;;;;12.00;99.90;;;;;;5115849;28;19908;-69
2023/08/24 13:04:38;;;;;;;;;;;12.10;99.90;;;;;;5115419;28;19954;-67
2023/08/24 13:07:05;;;;;;;;;;;12.00;99.90;;;;;;5114118;28;19926;-68
2023/08/24 13:09:31;;;;;;;;;;;12.00;99.90;;;;;;5115468;28;19969;-68
2023/08/24 13:11:58;;;;;;;;;;;12.00;99.90;;;;;;5115508;28;19991;-69
2023/08/24 13:14:25;;;;;;;;;;;12.00;99.90;;;;;;5115541;28;19912;-70
2023/08/24 13:16:52;;;;;;;;;;;11.90;99.90;;;;;;5115445;28;19919;-70
2023/08/24 13:19:18;;;;;;;;;;;11.90;99.90;;;;;;5114769;28;19915;-71
2023/08/24 13:21:45;;;;;;;;;;;11.80;99.90;;;;;;5115309;28;20280;-70
2023/08/24 13:24:12;;;;;;;;;;;11.80;99.90;;;;;;5115176;28;19957;-68
2023/08/24 13:26:38;;;;;;;;;;;11.80;99.90;;;;;;5094037;28;19969;-69
2023/08/24 13:29:05;;;;;;;;;;;11.80;99.90;;;;;;5114822;28;20376;-67
2023/08/24 13:31:31;;;;;;;;;;;11.80;99.90;;;;;;5115204;28;19908;-66
2023/08/24 13:33:58;;;;;;;;;;;11.80;99.90;;;;;;5115405;28;19908;-70
2023/08/24 13:36:25;;;;;;;;;;;11.80;99.90;;;;;;5114679;28;19907;-69
2023/08/24 13:38:52;;;;;;;;;;;11.70;99.90;;;;;;5114868;28;19918;-71
2023/08/24 13:41:18;;;;;;;;;;;11.70;99.90;;;;;;5114597;28;20394;-70
2023/08/24 13:43:45;;;;;;;;;;;11.80;99.90;;;;;;5114720;28;20057;-70
2023/08/24 13:46:12;;;;;;;;;;;11.80;99.90;;;;;;5114875;28;20424;-67
2023/08/24 13:48:38;;;;;;;;;;;11.70;99.90;;;;;;5095770;28;19908;-67
2023/08/24 13:51:05;;;;;;;;;;;11.70;99.90;;;;;;5114609;28;19908;-69
2023/08/24 13:53:32;;;;;;;;;;;11.70;99.90;;;;;;5114216;28;19912;-67
2023/08/24 13:55:58;;;;;;;;;;;11.70;99.90;;;;;;5114443;28;19915;-72
2023/08/24 13:58:25;;;;;;;;;;;11.60;99.90;;;;;;5114084;28;20015;-70
2023/08/24 14:00:58;;;;;;;;;;;11.60;99.90;;;;;;5114209;28;19908;-71
2023/08/24 14:03:25;;;;;;;;;;;11.70;99.90;;;;;;5114047;28;19916;-67
2023/08/24 14:05:58;;;;;;;;;;;11.60;99.90;;;;;;5114056;28;19915;-69
2023/08/24 14:08:25;;;;;;;;;;;11.60;99.90;;;;;;5113717;28;19961;-69
2023/08/24 14:10:52;;;;;;;;;;;11.60;99.90;;;;;;5114342;28;19915;-70
2023/08/24 14:13:18;;;;;;;;;;;11.60;99.90;;;;;;5114161;28;19908;-71
2023/08/24 14:15:45;;;;;;;;;;;11.50;99.90;;;;;;5105427;28;20249;-67
2023/08/24 14:18:12;;;;;;;;;;;11.50;99.90;;;;;;5111661;28;19927;-70